sensor_id;sensor_type;location;lat;lon;timestamp;P1;durP1;ratioP1;P2;durP2;ratioP2
86298;SDS011;76956;50.530;8.312;2024-03-02T00:00:42;8.43;;;4.95;;
86298;SDS011;76956;50.530;8.312;2024-03-02T00:01:44;7.72;;;4.30;;
86298;SDS011;76956;50.530;8.312;2024-03-02T00:02:47;9.68;;;4.32;;
86298;SDS011;76956;50.530;8.312;2024-03-02T00:03:52;7.22;;;4.07;;
86298;SDS011;76956;50.530;8.312;2024-03-02T00:04:54;7.10;;;4.05;;
86298;SDS011;76956;50.530;8.312;2024-03-02T00:05:56;7.60;;;3.72;;
86298;SDS011;76956;50.530;8.312;2024-03-02T00:06:58;7.13;;;3.97;;
86298;SDS011;76956;50.530;8.312;2024-03-02T00:08:00;8.30;;;4.85;;
86298;SDS011;76956;50.530;8.312;2024-03-02T00:09:02;8.75;;;4.38;;
86298;SDS011;76956;50.530;8.312;2024-03-02T00:10:06;7.15;;;4.22;;
86298;SDS011;76956;50.530;8.312;2024-03-02T00:11:12;12.38;;;6.93;;
86298;SDS011;76956;50.530;8.312;2024-03-02T00:12:16;8.63;;;4.75;;
86298;SDS011;76956;50.530;8.312;2024-03-02T00:13:20;7.53;;;4.13;;
86298;SDS011;76956;50.530;8.312;2024-03-02T00:14:28;8.30;;;4.20;;
86298;SDS011;76956;50.530;8.312;2024-03-02T00:16:48;8.98;;;5.03;;
86298;SDS011;76956;50.530;8.312;2024-03-02T00:17:53;6.68;;;3.95;;
86298;SDS011;76956;50.530;8.312;2024-03-02T00:18:56;6.90;;;4.10;;
86298;SDS011;76956;50.530;8.312;2024-03-02T00:19:58;11.45;;;4.10;;
86298;SDS011;76956;50.530;8.312;2024-03-02T00:21:00;7.38;;;4.30;;
86298;SDS011;76956;50.530;8.312;2024-03-02T00:22:04;9.40;;;4.95;;
86298;SDS011;76956;50.530;8.312;2024-03-02T00:23:06;10.77;;;5.22;;
86298;SDS011;76956;50.530;8.312;2024-03-02T00:24:29;13.38;;;7.15;;
86298;SDS011;76956;50.530;8.312;2024-03-02T00:25:41;12.32;;;6.22;;
86298;SDS011;76956;50.530;8.312;2024-03-02T00:26:48;10.50;;;6.03;;
86298;SDS011;76956;50.530;8.312;2024-03-02T00:27:50;8.02;;;4.88;;
86298;SDS011;76956;50.530;8.312;2024-03-02T00:28:54;9.18;;;5.45;;
86298;SDS011;76956;50.530;8.312;2024-03-02T00:30:00;10.15;;;5.72;;
86298;SDS011;76956;50.530;8.312;2024-03-02T00:32:16;9.30;;;4.78;;
86298;SDS011;76956;50.530;8.312;2024-03-02T00:33:18;8.68;;;4.72;;
86298;SDS011;76956;50.530;8.312;2024-03-02T00:34:21;9.70;;;5.50;;
86298;SDS011;76956;50.530;8.312;2024-03-02T00:35:24;7.18;;;4.35;;
86298;SDS011;76956;50.530;8.312;2024-03-02T00:36:26;7.88;;;4.68;;
86298;SDS011;76956;50.530;8.312;2024-03-02T00:37:30;9.40;;;5.43;;
86298;SDS011;76956;50.530;8.312;2024-03-02T00:38:33;9.85;;;5.47;;
86298;SDS011;76956;50.530;8.312;2024-03-02T00:39:35;10.95;;;5.00;;
86298;SDS011;76956;50.530;8.312;2024-03-02T00:40:40;9.00;;;5.25;;
86298;SDS011;76956;50.530;8.312;2024-03-02T00:41:42;9.75;;;5.20;;
86298;SDS011;76956;50.530;8.312;2024-03-02T00:42:45;10.75;;;5.30;;
86298;SDS011;76956;50.530;8.312;2024-03-02T00:43:49;9.80;;;5.32;;
86298;SDS011;76956;50.530;8.312;2024-03-02T00:44:55;10.25;;;5.13;;
86298;SDS011;76956;50.530;8.312;2024-03-02T00:45:57;9.95;;;5.65;;
86298;SDS011;76956;50.530;8.312;2024-03-02T00:46:59;10.48;;;5.40;;
86298;SDS011;76956;50.530;8.312;2024-03-02T00:48:01;10.35;;;6.15;;
86298;SDS011;76956;50.530;8.312;2024-03-02T00:49:17;10.75;;;5.38;;
86298;SDS011;76956;50.530;8.312;2024-03-02T00:50:22;10.25;;;6.05;;
86298;SDS011;76956;50.530;8.312;2024-03-02T00:51:32;11.02;;;6.03;;
86298;SDS011;76956;50.530;8.312;2024-03-02T00:52:36;9.10;;;4.65;;
86298;SDS011;76956;50.530;8.312;2024-03-02T00:53:38;9.02;;;5.03;;
86298;SDS011;76956;50.530;8.312;2024-03-02T00:54:40;8.40;;;4.90;;
86298;SDS011;76956;50.530;8.312;2024-03-02T00:55:42;7.15;;;5.05;;
86298;SDS011;76956;50.530;8.312;2024-03-02T00:56:45;10.23;;;5.03;;
86298;SDS011;76956;50.530;8.312;2024-03-02T00:57:50;10.82;;;5.53;;
86298;SDS011;76956;50.530;8.312;2024-03-02T00:58:52;10.57;;;5.80;;
86298;SDS011;76956;50.530;8.312;2024-03-02T00:59:55;7.72;;;5.18;;
86298;SDS011;76956;50.530;8.312;2024-03-02T01:00:57;11.48;;;5.15;;
86298;SDS011;76956;50.530;8.312;2024-03-02T01:01:59;9.43;;;5.53;;
86298;SDS011;76956;50.530;8.312;2024-03-02T01:03:02;9.32;;;5.25;;
86298;SDS011;76956;50.530;8.312;2024-03-02T01:04:05;8.02;;;4.88;;
86298;SDS011;76956;50.530;8.312;2024-03-02T01:05:07;9.02;;;4.80;;
86298;SDS011;76956;50.530;8.312;2024-03-02T01:06:09;9.30;;;4.80;;
86298;SDS011;76956;50.530;8.312;2024-03-02T01:07:11;10.30;;;5.35;;
86298;SDS011;76956;50.530;8.312;2024-03-02T01:08:13;7.85;;;4.55;;
86298;SDS011;76956;50.530;8.312;2024-03-02T01:09:15;9.02;;;5.60;;
86298;SDS011;76956;50.530;8.312;2024-03-02T01:10:18;9.52;;;5.57;;
86298;SDS011;76956;50.530;8.312;2024-03-02T01:11:20;7.18;;;5.07;;
86298;SDS011;76956;50.530;8.312;2024-03-02T01:12:25;72.82;;;39.97;;
86298;SDS011;76956;50.530;8.312;2024-03-02T01:13:27;92.80;;;50.80;;
86298;SDS011;76956;50.530;8.312;2024-03-02T01:14:29;40.83;;;20.52;;
86298;SDS011;76956;50.530;8.312;2024-03-02T01:15:31;21.98;;;13.75;;
86298;SDS011;76956;50.530;8.312;2024-03-02T01:16:33;28.05;;;15.85;;
86298;SDS011;76956;50.530;8.312;2024-03-02T01:17:35;21.30;;;12.55;;
86298;SDS011;76956;50.530;8.312;2024-03-02T01:18:36;16.05;;;9.75;;
86298;SDS011;76956;50.530;8.312;2024-03-02T01:19:38;12.43;;;7.85;;
86298;SDS011;76956;50.530;8.312;2024-03-02T01:20:42;13.63;;;7.40;;
86298;SDS011;76956;50.530;8.312;2024-03-02T01:21:44;13.13;;;7.03;;
86298;SDS011;76956;50.530;8.312;2024-03-02T01:22:47;10.02;;;6.57;;
86298;SDS011;76956;50.530;8.312;2024-03-02T01:23:49;9.82;;;5.45;;
86298;SDS011;76956;50.530;8.312;2024-03-02T01:24:51;9.18;;;6.07;;
86298;SDS011;76956;50.530;8.312;2024-03-02T01:25:53;8.95;;;5.90;;
86298;SDS011;76956;50.530;8.312;2024-03-02T01:26:55;11.25;;;6.35;;
86298;SDS011;76956;50.530;8.312;2024-03-02T01:27:57;8.63;;;5.90;;
86298;SDS011;76956;50.530;8.312;2024-03-02T01:28:59;12.00;;;6.20;;
86298;SDS011;76956;50.530;8.312;2024-03-02T01:30:01;11.63;;;5.35;;
86298;SDS011;76956;50.530;8.312;2024-03-02T01:31:03;9.32;;;5.00;;
86298;SDS011;76956;50.530;8.312;2024-03-02T01:32:05;10.40;;;5.15;;
86298;SDS011;76956;50.530;8.312;2024-03-02T01:33:07;9.65;;;5.63;;
86298;SDS011;76956;50.530;8.312;2024-03-02T01:34:09;10.93;;;5.03;;
86298;SDS011;76956;50.530;8.312;2024-03-02T01:35:11;10.65;;;5.35;;
86298;SDS011;76956;50.530;8.312;2024-03-02T01:36:13;10.40;;;5.20;;
86298;SDS011;76956;50.530;8.312;2024-03-02T01:37:15;10.93;;;4.60;;
86298;SDS011;76956;50.530;8.312;2024-03-02T01:38:17;7.43;;;4.32;;
86298;SDS011;76956;50.530;8.312;2024-03-02T01:39:19;8.75;;;4.60;;
86298;SDS011;76956;50.530;8.312;2024-03-02T01:40:22;8.73;;;4.80;;
86298;SDS011;76956;50.530;8.312;2024-03-02T01:41:27;9.82;;;5.13;;
86298;SDS011;76956;50.530;8.312;2024-03-02T01:42:29;8.80;;;6.15;;
86298;SDS011;76956;50.530;8.312;2024-03-02T01:43:32;9.40;;;5.10;;
86298;SDS011;76956;50.530;8.312;2024-03-02T01:44:34;8.98;;;5.18;;
86298;SDS011;76956;50.530;8.312;2024-03-02T01:45:36;9.02;;;4.88;;
86298;SDS011;76956;50.530;8.312;2024-03-02T01:46:39;7.38;;;4.05;;
86298;SDS011;76956;50.530;8.312;2024-03-02T01:47:41;9.27;;;4.65;;
86298;SDS011;76956;50.530;8.312;2024-03-02T01:48:43;10.05;;;4.60;;
86298;SDS011;76956;50.530;8.312;2024-03-02T01:49:45;8.85;;;4.95;;
86298;SDS011;76956;50.530;8.312;2024-03-02T01:50:47;9.25;;;4.80;;
86298;SDS011;76956;50.530;8.312;2024-03-02T01:51:49;7.45;;;3.72;;
86298;SDS011;76956;50.530;8.312;2024-03-02T01:52:51;8.60;;;4.72;;
86298;SDS011;76956;50.530;8.312;2024-03-02T01:53:53;7.18;;;4.55;;
86298;SDS011;76956;50.530;8.312;2024-03-02T01:54:55;8.18;;;5.05;;
86298;SDS011;76956;50.530;8.312;2024-03-02T01:55:57;11.15;;;5.25;;
86298;SDS011;76956;50.530;8.312;2024-03-02T01:56:59;8.32;;;4.88;;
86298;SDS011;76956;50.530;8.312;2024-03-02T01:58:01;10.57;;;5.28;;
86298;SDS011;76956;50.530;8.312;2024-03-02T01:59:04;10.88;;;5.57;;
86298;SDS011;76956;50.530;8.312;2024-03-02T02:00:06;10.30;;;5.53;;
86298;SDS011;76956;50.530;8.312;2024-03-02T02:01:12;9.55;;;4.88;;
86298;SDS011;76956;50.530;8.312;2024-03-02T02:02:14;6.85;;;4.55;;
86298;SDS011;76956;50.530;8.312;2024-03-02T02:03:16;9.07;;;5.30;;
86298;SDS011;76956;50.530;8.312;2024-03-02T02:04:18;8.15;;;5.30;;
86298;SDS011;76956;50.530;8.312;2024-03-02T02:05:23;8.15;;;5.20;;
86298;SDS011;76956;50.530;8.312;2024-03-02T02:06:25;8.82;;;4.85;;
86298;SDS011;76956;50.530;8.312;2024-03-02T02:07:27;8.95;;;4.93;;
86298;SDS011;76956;50.530;8.312;2024-03-02T02:08:30;9.27;;;4.88;;
86298;SDS011;76956;50.530;8.312;2024-03-02T02:09:32;9.88;;;5.10;;
86298;SDS011;76956;50.530;8.312;2024-03-02T02:10:34;10.82;;;5.43;;
86298;SDS011;76956;50.530;8.312;2024-03-02T02:11:36;8.88;;;5.28;;
86298;SDS011;76956;50.530;8.312;2024-03-02T02:12:37;9.00;;;5.50;;
86298;SDS011;76956;50.530;8.312;2024-03-02T02:13:40;11.90;;;4.95;;
86298;SDS011;76956;50.530;8.312;2024-03-02T02:14:48;9.25;;;5.38;;
86298;SDS011;76956;50.530;8.312;2024-03-02T02:15:51;8.68;;;4.20;;
86298;SDS011;76956;50.530;8.312;2024-03-02T02:16:55;10.13;;;5.43;;
86298;SDS011;76956;50.530;8.312;2024-03-02T02:17:57;7.22;;;4.20;;
86298;SDS011;76956;50.530;8.312;2024-03-02T02:19:00;8.88;;;4.38;;
86298;SDS011;76956;50.530;8.312;2024-03-02T02:20:03;8.75;;;4.32;;
86298;SDS011;76956;50.530;8.312;2024-03-02T02:21:07;8.10;;;4.80;;
86298;SDS011;76956;50.530;8.312;2024-03-02T02:22:12;9.05;;;4.60;;
86298;SDS011;76956;50.530;8.312;2024-03-02T02:23:14;11.05;;;5.03;;
86298;SDS011;76956;50.530;8.312;2024-03-02T02:24:16;8.60;;;4.65;;
86298;SDS011;76956;50.530;8.312;2024-03-02T02:25:18;8.45;;;4.70;;
86298;SDS011;76956;50.530;8.312;2024-03-02T02:26:20;12.18;;;4.97;;
86298;SDS011;76956;50.530;8.312;2024-03-02T02:27:21;9.05;;;5.10;;
86298;SDS011;76956;50.530;8.312;2024-03-02T02:28:23;8.07;;;4.78;;
86298;SDS011;76956;50.530;8.312;2024-03-02T02:29:25;8.48;;;4.35;;
86298;SDS011;76956;50.530;8.312;2024-03-02T02:30:28;9.63;;;4.53;;
86298;SDS011;76956;50.530;8.312;2024-03-02T02:31:40;9.98;;;5.25;;
86298;SDS011;76956;50.530;8.312;2024-03-02T02:32:43;9.10;;;5.10;;
86298;SDS011;76956;50.530;8.312;2024-03-02T02:33:45;7.22;;;4.20;;
86298;SDS011;76956;50.530;8.312;2024-03-02T02:34:51;8.25;;;4.75;;
86298;SDS011;76956;50.530;8.312;2024-03-02T02:35:54;7.85;;;4.15;;
86298;SDS011;76956;50.530;8.312;2024-03-02T02:36:56;8.85;;;4.88;;
86298;SDS011;76956;50.530;8.312;2024-03-02T02:37:58;8.43;;;4.70;;
86298;SDS011;76956;50.530;8.312;2024-03-02T02:39:03;10.90;;;4.88;;
86298;SDS011;76956;50.530;8.312;2024-03-02T02:40:06;10.15;;;4.97;;
86298;SDS011;76956;50.530;8.312;2024-03-02T02:41:09;9.70;;;4.85;;
86298;SDS011;76956;50.530;8.312;2024-03-02T02:42:11;8.90;;;4.13;;
86298;SDS011;76956;50.530;8.312;2024-03-02T02:43:12;10.27;;;4.50;;
86298;SDS011;76956;50.530;8.312;2024-03-02T02:44:16;9.00;;;5.25;;
86298;SDS011;76956;50.530;8.312;2024-03-02T02:45:18;8.15;;;5.40;;
86298;SDS011;76956;50.530;8.312;2024-03-02T02:46:20;8.82;;;4.55;;
86298;SDS011;76956;50.530;8.312;2024-03-02T02:47:22;8.18;;;4.60;;
86298;SDS011;76956;50.530;8.312;2024-03-02T02:48:24;9.70;;;5.30;;
86298;SDS011;76956;50.530;8.312;2024-03-02T02:49:26;13.15;;;4.75;;
86298;SDS011;76956;50.530;8.312;2024-03-02T02:50:28;7.03;;;4.53;;
86298;SDS011;76956;50.530;8.312;2024-03-02T02:51:29;10.88;;;4.82;;
86298;SDS011;76956;50.530;8.312;2024-03-02T02:52:35;7.13;;;4.10;;
86298;SDS011;76956;50.530;8.312;2024-03-02T02:53:38;8.10;;;4.85;;
86298;SDS011;76956;50.530;8.312;2024-03-02T02:54:42;6.60;;;4.13;;
86298;SDS011;76956;50.530;8.312;2024-03-02T02:55:44;9.85;;;4.32;;
86298;SDS011;76956;50.530;8.312;2024-03-02T02:56:45;8.65;;;4.72;;
86298;SDS011;76956;50.530;8.312;2024-03-02T02:57:47;7.00;;;4.57;;
86298;SDS011;76956;50.530;8.312;2024-03-02T02:58:49;15.13;;;4.57;;
86298;SDS011;76956;50.530;8.312;2024-03-02T02:59:51;7.40;;;4.47;;
86298;SDS011;76956;50.530;8.312;2024-03-02T03:00:53;7.93;;;4.82;;
86298;SDS011;76956;50.530;8.312;2024-03-02T03:01:58;8.05;;;4.20;;
86298;SDS011;76956;50.530;8.312;2024-03-02T03:03:00;8.30;;;4.28;;
86298;SDS011;76956;50.530;8.312;2024-03-02T03:04:02;7.45;;;4.38;;
86298;SDS011;76956;50.530;8.312;2024-03-02T03:05:05;8.93;;;4.40;;
86298;SDS011;76956;50.530;8.312;2024-03-02T03:06:07;7.80;;;4.72;;
86298;SDS011;76956;50.530;8.312;2024-03-02T03:07:09;6.22;;;4.20;;
86298;SDS011;76956;50.530;8.312;2024-03-02T03:08:11;9.05;;;5.07;;
86298;SDS011;76956;50.530;8.312;2024-03-02T03:09:13;7.43;;;4.22;;
86298;SDS011;76956;50.530;8.312;2024-03-02T03:10:15;8.85;;;4.45;;
86298;SDS011;76956;50.530;8.312;2024-03-02T03:11:18;8.70;;;5.30;;
86298;SDS011;76956;50.530;8.312;2024-03-02T03:12:20;10.02;;;4.75;;
86298;SDS011;76956;50.530;8.312;2024-03-02T03:13:22;11.38;;;4.88;;
86298;SDS011;76956;50.530;8.312;2024-03-02T03:14:24;7.53;;;4.40;;
86298;SDS011;76956;50.530;8.312;2024-03-02T03:15:26;7.88;;;4.70;;
86298;SDS011;76956;50.530;8.312;2024-03-02T03:16:28;9.02;;;4.85;;
86298;SDS011;76956;50.530;8.312;2024-03-02T03:17:30;7.80;;;4.32;;
86298;SDS011;76956;50.530;8.312;2024-03-02T03:18:32;9.13;;;4.40;;
86298;SDS011;76956;50.530;8.312;2024-03-02T03:19:34;7.75;;;4.63;;
86298;SDS011;76956;50.530;8.312;2024-03-02T03:20:36;11.27;;;5.65;;
86298;SDS011;76956;50.530;8.312;2024-03-02T03:21:38;8.15;;;4.80;;
86298;SDS011;76956;50.530;8.312;2024-03-02T03:22:40;8.45;;;4.65;;
86298;SDS011;76956;50.530;8.312;2024-03-02T03:23:42;9.85;;;5.15;;
86298;SDS011;76956;50.530;8.312;2024-03-02T03:24:44;9.90;;;4.85;;
86298;SDS011;76956;50.530;8.312;2024-03-02T03:25:46;8.10;;;4.65;;
86298;SDS011;76956;50.530;8.312;2024-03-02T03:26:47;10.40;;;4.95;;
86298;SDS011;76956;50.530;8.312;2024-03-02T03:27:49;9.00;;;4.68;;
86298;SDS011;76956;50.530;8.312;2024-03-02T03:28:54;9.38;;;4.80;;
86298;SDS011;76956;50.530;8.312;2024-03-02T03:29:56;13.10;;;5.68;;
86298;SDS011;76956;50.530;8.312;2024-03-02T03:30:58;11.63;;;6.05;;
86298;SDS011;76956;50.530;8.312;2024-03-02T03:31:59;8.98;;;4.82;;
86298;SDS011;76956;50.530;8.312;2024-03-02T03:33:01;8.02;;;4.95;;
86298;SDS011;76956;50.530;8.312;2024-03-02T03:34:03;9.98;;;4.75;;
86298;SDS011;76956;50.530;8.312;2024-03-02T03:35:05;8.95;;;5.07;;
86298;SDS011;76956;50.530;8.312;2024-03-02T03:36:08;8.65;;;4.63;;
86298;SDS011;76956;50.530;8.312;2024-03-02T03:37:10;8.63;;;4.95;;
86298;SDS011;76956;50.530;8.312;2024-03-02T03:38:11;8.32;;;4.93;;
86298;SDS011;76956;50.530;8.312;2024-03-02T03:39:13;8.48;;;4.55;;
86298;SDS011;76956;50.530;8.312;2024-03-02T03:40:15;7.72;;;4.75;;
86298;SDS011;76956;50.530;8.312;2024-03-02T03:41:17;14.55;;;4.78;;
86298;SDS011;76956;50.530;8.312;2024-03-02T03:42:19;10.50;;;4.72;;
86298;SDS011;76956;50.530;8.312;2024-03-02T03:43:21;7.57;;;4.15;;
86298;SDS011;76956;50.530;8.312;2024-03-02T03:44:23;8.48;;;4.75;;
86298;SDS011;76956;50.530;8.312;2024-03-02T03:45:25;6.38;;;4.07;;
86298;SDS011;76956;50.530;8.312;2024-03-02T03:46:29;8.35;;;4.63;;
86298;SDS011;76956;50.530;8.312;2024-03-02T03:47:31;10.52;;;5.65;;
86298;SDS011;76956;50.530;8.312;2024-03-02T03:48:33;12.30;;;5.90;;
86298;SDS011;76956;50.530;8.312;2024-03-02T03:49:35;10.27;;;4.78;;
86298;SDS011;76956;50.530;8.312;2024-03-02T03:50:37;9.27;;;4.97;;
86298;SDS011;76956;50.530;8.312;2024-03-02T03:51:39;12.07;;;5.75;;
86298;SDS011;76956;50.530;8.312;2024-03-02T03:52:41;7.32;;;4.40;;
86298;SDS011;76956;50.530;8.312;2024-03-02T03:53:43;12.27;;;5.72;;
86298;SDS011;76956;50.530;8.312;2024-03-02T03:54:45;8.10;;;4.95;;
86298;SDS011;76956;50.530;8.312;2024-03-02T03:55:47;9.70;;;5.53;;
86298;SDS011;76956;50.530;8.312;2024-03-02T03:56:50;9.48;;;4.82;;
86298;SDS011;76956;50.530;8.312;2024-03-02T03:57:52;7.82;;;4.20;;
86298;SDS011;76956;50.530;8.312;2024-03-02T03:58:54;12.13;;;4.50;;
86298;SDS011;76956;50.530;8.312;2024-03-02T03:59:56;7.95;;;5.07;;
86298;SDS011;76956;50.530;8.312;2024-03-02T04:00:58;8.75;;;4.70;;
86298;SDS011;76956;50.530;8.312;2024-03-02T04:02:00;8.85;;;4.45;;
86298;SDS011;76956;50.530;8.312;2024-03-02T04:03:02;9.82;;;4.60;;
86298;SDS011;76956;50.530;8.312;2024-03-02T04:04:04;8.07;;;5.18;;
86298;SDS011;76956;50.530;8.312;2024-03-02T04:05:06;7.72;;;4.85;;
86298;SDS011;76956;50.530;8.312;2024-03-02T04:06:10;7.00;;;3.83;;
86298;SDS011;76956;50.530;8.312;2024-03-02T04:07:12;8.07;;;4.70;;
86298;SDS011;76956;50.530;8.312;2024-03-02T04:08:14;7.68;;;4.28;;
86298;SDS011;76956;50.530;8.312;2024-03-02T04:09:16;7.82;;;4.18;;
86298;SDS011;76956;50.530;8.312;2024-03-02T04:10:18;8.02;;;4.00;;
86298;SDS011;76956;50.530;8.312;2024-03-02T04:11:20;9.25;;;4.53;;
86298;SDS011;76956;50.530;8.312;2024-03-02T04:12:22;10.40;;;5.63;;
86298;SDS011;76956;50.530;8.312;2024-03-02T04:13:24;10.02;;;5.05;;
86298;SDS011;76956;50.530;8.312;2024-03-02T04:14:26;9.93;;;5.13;;
86298;SDS011;76956;50.530;8.312;2024-03-02T04:15:29;8.75;;;4.78;;
86298;SDS011;76956;50.530;8.312;2024-03-02T04:16:31;8.90;;;4.85;;
86298;SDS011;76956;50.530;8.312;2024-03-02T04:17:33;9.73;;;5.00;;
86298;SDS011;76956;50.530;8.312;2024-03-02T04:18:35;7.22;;;4.50;;
86298;SDS011;76956;50.530;8.312;2024-03-02T04:19:37;8.55;;;4.20;;
86298;SDS011;76956;50.530;8.312;2024-03-02T04:20:39;6.60;;;4.22;;
86298;SDS011;76956;50.530;8.312;2024-03-02T04:21:41;7.78;;;4.10;;
86298;SDS011;76956;50.530;8.312;2024-03-02T04:22:43;6.40;;;4.13;;
86298;SDS011;76956;50.530;8.312;2024-03-02T04:23:45;6.82;;;4.13;;
86298;SDS011;76956;50.530;8.312;2024-03-02T04:24:47;7.32;;;4.38;;
86298;SDS011;76956;50.530;8.312;2024-03-02T04:25:48;7.40;;;4.35;;
86298;SDS011;76956;50.530;8.312;2024-03-02T04:26:51;8.98;;;4.15;;
86298;SDS011;76956;50.530;8.312;2024-03-02T04:27:53;8.57;;;4.78;;
86298;SDS011;76956;50.530;8.312;2024-03-02T04:28:55;14.90;;;6.15;;
86298;SDS011;76956;50.530;8.312;2024-03-02T04:29:57;10.00;;;5.32;;
86298;SDS011;76956;50.530;8.312;2024-03-02T04:30:59;10.48;;;5.68;;
86298;SDS011;76956;50.530;8.312;2024-03-02T04:32:01;10.35;;;5.55;;
86298;SDS011;76956;50.530;8.312;2024-03-02T04:33:03;11.02;;;5.78;;
86298;SDS011;76956;50.530;8.312;2024-03-02T04:34:07;10.98;;;5.70;;
86298;SDS011;76956;50.530;8.312;2024-03-02T04:35:09;14.45;;;5.90;;
86298;SDS011;76956;50.530;8.312;2024-03-02T04:36:11;11.85;;;5.60;;
86298;SDS011;76956;50.530;8.312;2024-03-02T04:37:13;10.05;;;5.60;;
86298;SDS011;76956;50.530;8.312;2024-03-02T04:38:16;10.02;;;5.25;;
86298;SDS011;76956;50.530;8.312;2024-03-02T04:39:18;9.27;;;4.68;;
86298;SDS011;76956;50.530;8.312;2024-03-02T04:40:20;8.40;;;4.40;;
86298;SDS011;76956;50.530;8.312;2024-03-02T04:41:22;9.57;;;5.30;;
86298;SDS011;76956;50.530;8.312;2024-03-02T04:42:23;11.15;;;6.32;;
86298;SDS011;76956;50.530;8.312;2024-03-02T04:43:26;9.30;;;5.15;;
86298;SDS011;76956;50.530;8.312;2024-03-02T04:44:28;12.15;;;4.97;;
86298;SDS011;76956;50.530;8.312;2024-03-02T04:45:30;9.73;;;5.03;;
86298;SDS011;76956;50.530;8.312;2024-03-02T04:46:33;13.38;;;5.70;;
86298;SDS011;76956;50.530;8.312;2024-03-02T04:47:35;10.05;;;5.22;;
86298;SDS011;76956;50.530;8.312;2024-03-02T04:48:37;9.43;;;4.95;;
86298;SDS011;76956;50.530;8.312;2024-03-02T04:49:39;11.15;;;5.28;;
86298;SDS011;76956;50.530;8.312;2024-03-02T04:50:41;9.20;;;4.82;;
86298;SDS011;76956;50.530;8.312;2024-03-02T04:51:43;9.48;;;4.50;;
86298;SDS011;76956;50.530;8.312;2024-03-02T04:52:45;9.43;;;4.63;;
86298;SDS011;76956;50.530;8.312;2024-03-02T04:53:47;8.18;;;4.72;;
86298;SDS011;76956;50.530;8.312;2024-03-02T04:54:49;9.50;;;6.25;;
86298;SDS011;76956;50.530;8.312;2024-03-02T04:56:09;10.82;;;4.85;;
86298;SDS011;76956;50.530;8.312;2024-03-02T04:57:45;7.05;;;4.07;;
86298;SDS011;76956;50.530;8.312;2024-03-02T04:58:47;10.65;;;3.95;;
86298;SDS011;76956;50.530;8.312;2024-03-02T04:59:49;8.05;;;4.32;;
86298;SDS011;76956;50.530;8.312;2024-03-02T05:00:51;8.05;;;4.32;;
86298;SDS011;76956;50.530;8.312;2024-03-02T05:01:53;9.40;;;5.05;;
86298;SDS011;76956;50.530;8.312;2024-03-02T05:02:55;9.45;;;4.90;;
86298;SDS011;76956;50.530;8.312;2024-03-02T05:03:57;7.32;;;4.05;;
86298;SDS011;76956;50.530;8.312;2024-03-02T05:04:59;8.85;;;4.80;;
86298;SDS011;76956;50.530;8.312;2024-03-02T05:06:01;8.18;;;4.40;;
86298;SDS011;76956;50.530;8.312;2024-03-02T05:07:03;8.00;;;4.75;;
86298;SDS011;76956;50.530;8.312;2024-03-02T05:08:05;9.95;;;4.90;;
86298;SDS011;76956;50.530;8.312;2024-03-02T05:09:08;8.85;;;4.57;;
86298;SDS011;76956;50.530;8.312;2024-03-02T05:10:11;9.30;;;4.68;;
86298;SDS011;76956;50.530;8.312;2024-03-02T05:11:16;8.90;;;4.55;;
86298;SDS011;76956;50.530;8.312;2024-03-02T05:12:33;7.70;;;4.43;;
86298;SDS011;76956;50.530;8.312;2024-03-02T05:13:45;11.52;;;4.20;;
86298;SDS011;76956;50.530;8.312;2024-03-02T05:14:46;9.38;;;4.50;;
86298;SDS011;76956;50.530;8.312;2024-03-02T05:15:48;9.10;;;4.80;;
86298;SDS011;76956;50.530;8.312;2024-03-02T05:16:51;7.60;;;4.68;;
86298;SDS011;76956;50.530;8.312;2024-03-02T05:17:53;9.15;;;4.50;;
86298;SDS011;76956;50.530;8.312;2024-03-02T05:18:55;8.38;;;4.95;;
86298;SDS011;76956;50.530;8.312;2024-03-02T05:19:57;10.80;;;4.68;;
86298;SDS011;76956;50.530;8.312;2024-03-02T05:20:59;9.15;;;4.03;;
86298;SDS011;76956;50.530;8.312;2024-03-02T05:22:01;7.70;;;3.85;;
86298;SDS011;76956;50.530;8.312;2024-03-02T05:23:04;8.60;;;5.13;;
86298;SDS011;76956;50.530;8.312;2024-03-02T05:24:06;10.00;;;5.13;;
86298;SDS011;76956;50.530;8.312;2024-03-02T05:25:08;8.30;;;4.50;;
86298;SDS011;76956;50.530;8.312;2024-03-02T05:26:12;10.57;;;5.30;;
86298;SDS011;76956;50.530;8.312;2024-03-02T05:27:16;12.02;;;5.40;;
86298;SDS011;76956;50.530;8.312;2024-03-02T05:28:18;8.32;;;4.85;;
86298;SDS011;76956;50.530;8.312;2024-03-02T05:29:20;8.07;;;4.55;;
86298;SDS011;76956;50.530;8.312;2024-03-02T05:30:22;8.55;;;4.97;;
86298;SDS011;76956;50.530;8.312;2024-03-02T05:31:24;7.93;;;4.63;;
86298;SDS011;76956;50.530;8.312;2024-03-02T05:32:26;8.45;;;4.53;;
86298;SDS011;76956;50.530;8.312;2024-03-02T05:33:28;8.43;;;5.38;;
86298;SDS011;76956;50.530;8.312;2024-03-02T05:34:31;9.20;;;4.75;;
86298;SDS011;76956;50.530;8.312;2024-03-02T05:35:36;8.18;;;4.50;;
86298;SDS011;76956;50.530;8.312;2024-03-02T05:36:38;8.15;;;4.10;;
86298;SDS011;76956;50.530;8.312;2024-03-02T05:37:40;6.60;;;4.28;;
86298;SDS011;76956;50.530;8.312;2024-03-02T05:38:42;11.52;;;4.65;;
86298;SDS011;76956;50.530;8.312;2024-03-02T05:39:44;9.65;;;5.18;;
86298;SDS011;76956;50.530;8.312;2024-03-02T05:40:46;8.35;;;4.40;;
86298;SDS011;76956;50.530;8.312;2024-03-02T05:41:48;7.47;;;4.20;;
86298;SDS011;76956;50.530;8.312;2024-03-02T05:42:50;9.27;;;4.93;;
86298;SDS011;76956;50.530;8.312;2024-03-02T05:43:52;10.40;;;5.40;;
86298;SDS011;76956;50.530;8.312;2024-03-02T05:44:54;12.88;;;4.15;;
86298;SDS011;76956;50.530;8.312;2024-03-02T05:45:56;7.70;;;4.75;;
86298;SDS011;76956;50.530;8.312;2024-03-02T05:46:57;7.25;;;4.53;;
86298;SDS011;76956;50.530;8.312;2024-03-02T05:47:59;7.57;;;4.68;;
86298;SDS011;76956;50.530;8.312;2024-03-02T05:49:01;7.75;;;4.20;;
86298;SDS011;76956;50.530;8.312;2024-03-02T05:50:04;6.97;;;4.53;;
86298;SDS011;76956;50.530;8.312;2024-03-02T05:51:06;10.65;;;4.95;;
86298;SDS011;76956;50.530;8.312;2024-03-02T05:52:08;8.80;;;4.85;;
86298;SDS011;76956;50.530;8.312;2024-03-02T05:53:10;7.45;;;4.65;;
86298;SDS011;76956;50.530;8.312;2024-03-02T05:54:12;9.68;;;5.22;;
86298;SDS011;76956;50.530;8.312;2024-03-02T05:55:14;8.20;;;4.85;;
86298;SDS011;76956;50.530;8.312;2024-03-02T05:56:16;8.50;;;4.75;;
86298;SDS011;76956;50.530;8.312;2024-03-02T05:57:18;9.52;;;4.70;;
86298;SDS011;76956;50.530;8.312;2024-03-02T05:58:47;9.35;;;5.15;;
86298;SDS011;76956;50.530;8.312;2024-03-02T06:00:08;7.22;;;4.30;;
86298;SDS011;76956;50.530;8.312;2024-03-02T06:01:14;10.18;;;5.00;;
86298;SDS011;76956;50.530;8.312;2024-03-02T06:02:16;10.00;;;5.38;;
86298;SDS011;76956;50.530;8.312;2024-03-02T06:03:17;8.93;;;4.97;;
86298;SDS011;76956;50.530;8.312;2024-03-02T06:04:19;14.43;;;5.03;;
86298;SDS011;76956;50.530;8.312;2024-03-02T06:05:21;9.32;;;4.57;;
86298;SDS011;76956;50.530;8.312;2024-03-02T06:06:23;9.50;;;4.78;;
86298;SDS011;76956;50.530;8.312;2024-03-02T06:07:25;8.45;;;4.93;;
86298;SDS011;76956;50.530;8.312;2024-03-02T06:08:27;6.90;;;4.13;;
86298;SDS011;76956;50.530;8.312;2024-03-02T06:09:29;8.40;;;5.05;;
86298;SDS011;76956;50.530;8.312;2024-03-02T06:10:31;8.75;;;4.45;;
86298;SDS011;76956;50.530;8.312;2024-03-02T06:11:33;10.45;;;4.65;;
86298;SDS011;76956;50.530;8.312;2024-03-02T06:12:38;8.38;;;5.10;;
86298;SDS011;76956;50.530;8.312;2024-03-02T06:13:40;10.00;;;4.70;;
86298;SDS011;76956;50.530;8.312;2024-03-02T06:14:43;9.85;;;5.47;;
86298;SDS011;76956;50.530;8.312;2024-03-02T06:15:45;8.50;;;4.65;;
86298;SDS011;76956;50.530;8.312;2024-03-02T06:16:47;8.68;;;4.78;;
86298;SDS011;76956;50.530;8.312;2024-03-02T06:17:49;7.10;;;4.32;;
86298;SDS011;76956;50.530;8.312;2024-03-02T06:18:51;9.25;;;4.78;;
86298;SDS011;76956;50.530;8.312;2024-03-02T06:19:55;10.70;;;4.70;;